Time;durP1;ratioP1;P1;durP2;ratioP2;P2;SDS_P1;SDS_P2;PMS_P1;PMS_P2;Temp;Humidity;BMP_temperature;BMP_pressure;BME280_temperature;BME280_humidity;BME280_pressure;Samples;Min_cycle;Max_cycle;Signal;HPM_P1;HPM_P2
2024/02/09 00:00:40;;;;;;;72.90;52.23;;;;;5.70;95324.00;;;;5082603;28;20226;-68
2024/02/09 00:03:29;;;;;;;100.53;64.00;;;;;5.40;95305.00;;;;5082762;28;20248;-69
2024/02/09 00:06:21;;;;;;;85.93;56.77;;;;;5.90;95313.00;;;;5085870;28;20227;-69
2024/02/09 00:09:12;;;;;;;87.47;58.53;;;;;6.40;95313.00;;;;5087924;28;20207;-70
2024/02/09 00:12:03;;;;;;;77.93;54.53;;;;;6.30;95310.00;;;;5080748;28;20572;-69
2024/02/09 00:14:52;;;;;;;75.67;52.60;;;;;5.60;95308.00;;;;5084502;28;20219;-68
2024/02/09 00:17:41;;;;;;;70.60;50.63;;;;;5.10;95309.00;;;;5085501;28;20438;-69
2024/02/09 00:20:30;;;;;;;84.50;57.10;;;;;5.80;95311.00;;;;5079587;28;20200;-69
2024/02/09 00:23:21;;;;;;;98.57;63.77;;;;;5.50;95316.00;;;;5085966;28;20395;-68
2024/02/09 00:26:10;;;;;;;71.47;52.13;;;;;5.50;95319.00;;;;5085117;28;20235;-69
2024/02/09 00:29:01;;;;;;;79.60;54.07;;;;;6.20;95314.00;;;;5081462;28;20207;-69
2024/02/09 00:31:52;;;;;;;73.57;52.13;;;;;6.40;95320.00;;;;5079542;28;20966;-69
2024/02/09 00:34:41;;;;;;;79.93;55.13;;;;;6.30;95313.00;;;;5086813;28;20473;-69
2024/02/09 00:37:31;;;;;;;85.80;56.60;;;;;6.70;95313.00;;;;5091202;28;20195;-69
2024/02/09 00:40:21;;;;;;;95.77;62.37;;;;;6.10;95308.00;;;;5085829;28;20710;-69
2024/02/09 00:43:11;;;;;;;81.60;56.13;;;;;5.30;95301.00;;;;5084909;28;20195;-69
2024/02/09 00:46:02;;;;;;;72.23;51.13;;;;;5.80;95310.00;;;;5082561;28;20465;-69
2024/02/09 00:48:51;;;;;;;85.83;56.67;;;;;5.90;95295.00;;;;5089381;28;20606;-69
2024/02/09 00:51:40;;;;;;;88.83;58.37;;;;;5.90;95299.00;;;;5088081;28;20207;-69
2024/02/09 00:54:29;;;;;;;94.37;59.57;;;;;6.20;95300.00;;;;5088979;28;20231;-69
2024/02/09 00:57:22;;;;;;;79.80;54.73;;;;;5.80;95292.00;;;;5085856;28;20437;-70
2024/02/09 01:00:12;;;;;;;78.07;54.40;;;;;5.90;95282.00;;;;5085871;28;20207;-70
2024/02/09 01:03:02;;;;;;;86.93;56.77;;;;;6.10;95300.00;;;;5086273;28;20674;-70
2024/02/09 01:05:51;;;;;;;85.17;55.00;;;;;6.50;95291.00;;;;5083100;28;20469;-69
2024/02/09 01:08:41;;;;;;;100.30;61.63;;;;;6.50;95289.00;;;;5088200;28;20441;-69
2024/02/09 01:11:30;;;;;;;101.17;63.27;;;;;6.10;95293.00;;;;5086656;28;20199;-69
2024/02/09 02:47:12;;;;;;;91.97;58.37;;;;;5.50;95160.00;;;;5097212;28;20444;-74
2024/02/09 03:05:35;;;;;;;125.60;71.23;;;;;6.60;95175.00;;;;5085794;28;20214;-73
2024/02/09 03:08:24;;;;;;;119.67;67.33;;;;;6.60;95171.00;;;;5087516;28;20479;-76
2024/02/09 03:11:16;;;;;;;108.60;61.70;;;;;6.30;95168.00;;;;5096435;28;20505;-73
2024/02/09 03:14:06;;;;;;;117.57;66.80;;;;;6.40;95162.00;;;;5087017;28;20426;-72
2024/02/09 03:16:55;;;;;;;109.37;60.83;;;;;6.60;95163.00;;;;5080975;28;20223;-75
2024/02/09 03:19:45;;;;;;;103.53;58.97;;;;;6.40;95159.00;;;;5092092;28;20429;-73
2024/02/09 03:22:36;;;;;;;128.37;69.13;;;;;6.10;95161.00;;;;5094908;28;20428;-74
2024/02/09 03:25:25;;;;;;;119.50;67.10;;;;;5.40;95154.00;;;;5098089;28;20839;-73
2024/02/09 03:28:16;;;;;;;111.30;62.93;;;;;5.40;95144.00;;;;5092363;28;20497;-73
2024/02/09 03:31:08;;;;;;;106.10;60.70;;;;;5.60;95160.00;;;;5095018;28;20692;-75
2024/02/09 03:33:58;;;;;;;117.37;64.00;;;;;5.20;95161.00;;;;5094946;28;20418;-73
2024/02/09 03:36:47;;;;;;;121.80;64.47;;;;;5.40;95150.00;;;;5093781;28;20842;-75
2024/02/09 03:39:38;;;;;;;121.23;66.97;;;;;5.30;95146.00;;;;5084069;28;20966;-75
2024/02/09 03:42:27;;;;;;;119.57;67.50;;;;;5.00;95144.00;;;;5096111;28;20425;-74
2024/02/09 03:45:17;;;;;;;114.60;61.13;;;;;5.60;95154.00;;;;5087220;28;20473;-73
2024/02/09 03:48:07;;;;;;;123.23;65.70;;;;;6.00;95148.00;;;;5090291;28;20417;-75
2024/02/09 03:50:56;;;;;;;120.53;64.13;;;;;6.40;95153.00;;;;5083662;28;20465;-75
2024/02/09 03:53:45;;;;;;;124.80;65.60;;;;;6.50;95136.00;;;;5096708;28;20430;-75
2024/02/09 03:56:36;;;;;;;141.00;73.53;;;;;6.00;95139.00;;;;5097968;28;20444;-76
2024/02/09 03:59:27;;;;;;;125.97;65.57;;;;;5.60;95129.00;;;;5087516;28;20973;-73
2024/02/09 04:02:16;;;;;;;126.30;67.03;;;;;5.50;95139.00;;;;5096567;28;20428;-75
2024/02/09 04:05:07;;;;;;;116.13;62.03;;;;;5.60;95137.00;;;;5092576;28;20465;-74
2024/02/09 04:07:56;;;;;;;131.53;67.30;;;;;6.20;95136.00;;;;5083005;28;20429;-74
2024/02/09 04:10:45;;;;;;;131.87;65.70;;;;;6.20;95131.00;;;;5094145;28;20436;-74
2024/02/09 04:13:36;;;;;;;152.03;75.87;;;;;6.50;95139.00;;;;5088888;28;20841;-74
2024/02/09 04:16:26;;;;;;;151.90;75.47;;;;;6.70;95131.00;;;;5094775;28;20302;-73
2024/02/09 04:19:15;;;;;;;142.70;70.27;;;;;6.80;95117.00;;;;5085130;28;20437;-72
2024/02/09 04:22:05;;;;;;;142.33;69.93;;;;;6.70;95114.00;;;;5086929;28;20418;-74
2024/02/09 04:24:54;;;;;;;134.87;66.80;;;;;6.90;95119.00;;;;5103838;28;20480;-72
2024/02/09 04:27:44;;;;;;;143.63;71.20;;;;;6.60;95118.00;;;;5090126;28;20449;-72
2024/02/09 04:30:34;;;;;;;135.80;67.37;;;;;6.80;95111.00;;;;5098011;28;20429;-72
2024/02/09 04:33:24;;;;;;;158.90;80.00;;;;;6.80;95114.00;;;;5088404;28;20203;-72
2024/02/09 04:36:13;;;;;;;133.53;66.23;;;;;6.10;95101.00;;;;5093484;28;20922;-73
2024/02/09 04:39:02;;;;;;;145.70;71.27;;;;;5.30;95102.00;;;;5103611;28;20218;-73
2024/02/09 04:41:52;;;;;;;140.43;69.93;;;;;4.90;95107.00;;;;5086007;28;20425;-76
2024/02/09 04:44:42;;;;;;;147.37;70.30;;;;;5.60;95098.00;;;;5096995;28;20199;-72
2024/02/09 04:47:33;;;;;;;169.10;79.40;;;;;6.10;95088.00;;;;5087245;28;20511;-73
2024/02/09 04:50:22;;;;;;;155.70;74.67;;;;;6.50;95095.00;;;;5099778;28;21134;-75
2024/02/09 04:53:11;;;;;;;147.00;69.47;;;;;6.50;95093.00;;;;5080161;28;20437;-72
2024/02/09 04:56:01;;;;;;;160.20;72.53;;;;;6.60;95092.00;;;;5084343;28;20445;-74
2024/02/09 04:58:51;;;;;;;157.67;72.30;;;;;6.80;95088.00;;;;5093707;28;20432;-71
2024/02/09 05:01:42;;;;;;;156.80;71.23;;;;;6.70;95087.00;;;;5094216;28;20510;-75
2024/02/09 05:04:32;;;;;;;182.93;79.17;;;;;6.70;95070.00;;;;5098932;28;20443;-74
2024/02/09 05:07:22;;;;;;;172.47;77.73;;;;;6.20;95062.00;;;;5088569;28;21017;-75
2024/02/09 05:10:12;;;;;;;158.80;69.93;;;;;5.70;95060.00;;;;5086329;28;20417;-76
2024/02/09 05:13:02;;;;;;;176.03;74.67;;;;;6.40;95064.00;;;;5089779;28;20417;-75
2024/02/09 05:15:52;;;;;;;191.53;76.30;;;;;6.30;95063.00;;;;5095318;28;20852;-75
2024/02/09 05:18:41;;;;;;;222.90;87.63;;;;;5.70;95063.00;;;;5101717;28;20433;-74
2024/02/09 05:21:35;;;;;;;310.83;80.37;;;;;6.10;95062.00;;;;5086010;28;20554;-74
2024/02/09 05:24:26;;;;;;;142.00;72.07;;;;;6.20;95064.00;;;;5091507;28;20434;-75
2024/02/09 05:27:15;;;;;;;41.67;37.23;;;;;6.40;95065.00;;;;5085629;28;20485;-73
2024/02/09 05:30:08;;;;;;;38.77;35.17;;;;;6.30;95060.00;;;;5085493;28;20279;-75
2024/02/09 05:32:57;;;;;;;44.93;40.13;;;;;6.00;95055.00;;;;5081429;28;20688;-74
2024/02/09 05:35:51;;;;;;;48.17;43.03;;;;;6.10;95056.00;;;;5081224;28;20215;-73
2024/02/09 05:38:42;;;;;;;64.67;50.40;;;;;6.40;95058.00;;;;5091848;28;20238;-74
2024/02/09 05:41:31;;;;;;;62.63;49.30;;;;;6.20;95054.00;;;;5101727;28;20203;-74
2024/02/09 05:44:20;;;;;;;64.27;49.73;;;;;6.30;95050.00;;;;5099673;28;20534;-74
2024/02/09 05:47:09;;;;;;;70.47;50.83;;;;;6.10;95061.00;;;;5086978;28;20219;-74
2024/02/09 05:49:59;;;;;;;70.77;51.07;;;;;6.40;95062.00;;;;5081935;28;20203;-73
2024/02/09 05:52:48;;;;;;;80.20;53.13;;;;;6.00;95051.00;;;;5090765;28;20367;-73
2024/02/09 05:55:40;;;;;;;95.03;60.23;;;;;5.40;95057.00;;;;5090993;28;20207;-74
2024/02/09 05:58:30;;;;;;;98.70;61.17;;;;;6.30;95051.00;;;;5088478;28;20433;-76
2024/02/09 06:01:19;;;;;;;88.13;56.10;;;;;6.30;95068.00;;;;5091143;28;20451;-72
2024/02/09 06:04:09;;;;;;;112.87;64.50;;;;;6.50;95060.00;;;;5085626;28;20203;-73
2024/02/09 06:06:59;;;;;;;130.50;67.60;;;;;6.20;95059.00;;;;5083549;28;20231;-74
2024/02/09 06:09:49;;;;;;;117.93;63.03;;;;;6.10;95063.00;;;;5080211;28;20803;-74
2024/02/09 06:12:40;;;;;;;148.87;76.07;;;;;6.00;95052.00;;;;5083423;28;20448;-73
2024/02/09 06:15:29;;;;;;;145.63;71.63;;;;;6.50;95064.00;;;;5085756;28;20440;-73
2024/02/09 06:18:18;;;;;;;138.30;70.70;;;;;6.50;95056.00;;;;5096606;28;20428;-73
2024/02/09 06:21:08;;;;;;;131.97;67.27;;;;;6.10;95045.00;;;;5084657;28;20187;-73
2024/02/09 06:23:57;;;;;;;193.10;77.50;;;;;6.10;95050.00;;;;5083844;28;20453;-74
2024/02/09 06:26:47;;;;;;;213.80;80.53;;;;;6.30;95051.00;;;;5081935;28;20479;-72
2024/02/09 06:29:38;;;;;;;137.23;73.13;;;;;6.50;95059.00;;;;5079230;28;20434;-73
2024/02/09 06:32:27;;;;;;;126.53;70.80;;;;;6.40;95053.00;;;;5080070;28;20445;-73
2024/02/09 06:35:18;;;;;;;171.50;71.03;;;;;6.50;95065.00;;;;5093908;28;20659;-74
2024/02/09 06:38:07;;;;;;;312.57;85.00;;;;;6.40;95068.00;;;;5076718;28;21178;-74
2024/02/09 06:40:58;;;;;;;315.93;98.83;;;;;6.80;95070.00;;;;5088663;28;20432;-73
2024/02/09 06:43:47;;;;;;;324.20;84.83;;;;;6.80;95078.00;;;;5085767;28;20446;-72
2024/02/09 06:46:38;;;;;;;298.93;86.33;;;;;6.40;95068.00;;;;5092711;28;20473;-74
2024/02/09 06:49:28;;;;;;;133.60;72.57;;;;;6.10;95081.00;;;;5085127;28;20495;-74
2024/02/09 06:52:18;;;;;;;331.10;81.57;;;;;6.50;95076.00;;;;5078620;28;20816;-73
2024/02/09 06:55:11;;;;;;;235.63;72.80;;;;;6.40;95071.00;;;;5069898;28;20445;-74
2024/02/09 06:58:01;;;;;;;374.93;156.60;;;;;7.00;95064.00;;;;5076916;28;20965;-74
2024/02/09 07:00:52;;;;;;;387.30;160.17;;;;;7.20;95077.00;;;;5018256;28;20449;-74
2024/02/09 07:03:49;;;;;;;440.90;164.73;;;;;6.60;95067.00;;;;5046269;28;20445;-73
2024/02/09 07:06:41;;;;;;;277.13;90.50;;;;;6.50;95069.00;;;;5060975;28;21211;-74
2024/02/09 07:09:30;;;;;;;428.00;159.07;;;;;6.70;95068.00;;;;5063077;28;20440;-73
2024/02/09 07:12:20;;;;;;;427.03;155.37;;;;;6.80;95070.00;;;;5016544;28;22203;-75
2024/02/09 07:15:10;;;;;;;386.67;129.77;;;;;6.90;95058.00;;;;5011810;28;20460;-75
2024/02/09 07:18:00;;;;;;;255.43;147.47;;;;;6.90;95073.00;;;;5017138;28;22323;-75
2024/02/09 07:20:52;;;;;;;91.63;42.93;;;;;7.50;95068.00;;;;5011942;28;20216;-74
2024/02/09 07:23:41;;;;;;;53.17;45.03;;;;;7.60;95061.00;;;;5032529;28;20215;-73
2024/02/09 07:26:30;;;;;;;162.20;98.73;;;;;7.60;95055.00;;;;5073750;28;20240;-74
2024/02/09 07:29:22;;;;;;;157.77;84.13;;;;;7.30;95063.00;;;;5080362;28;20208;-73
2024/02/09 07:32:11;;;;;;;160.60;77.27;;;;;7.00;95064.00;;;;5077370;28;20203;-72
2024/02/09 07:35:01;;;;;;;156.90;74.57;;;;;7.30;95070.00;;;;5074165;28;20207;-72
2024/02/09 07:37:51;;;;;;;198.43;79.90;;;;;7.60;95063.00;;;;5083988;28;20215;-72
2024/02/09 07:40:40;;;;;;;186.70;87.47;;;;;8.00;95065.00;;;;5080160;28;20694;-72
2024/02/09 07:43:30;;;;;;;192.17;91.87;;;;;8.20;95061.00;;;;5081598;28;20320;-72
2024/02/09 07:46:19;;;;;;;178.67;79.17;;;;;7.70;95062.00;;;;5088797;28;20219;-73
2024/02/09 07:49:08;;;;;;;165.57;80.87;;;;;8.30;95054.00;;;;5085829;28;20216;-73
2024/02/09 07:51:58;;;;;;;186.60;82.73;;;;;8.30;95049.00;;;;5084448;28;20199;-73
2024/02/09 07:54:48;;;;;;;173.30;81.60;;;;;7.90;95049.00;;;;5086751;28;20216;-73
2024/02/09 07:57:37;;;;;;;184.03;86.20;;;;;7.80;95054.00;;;;5089179;28;20215;-73
2024/02/09 08:00:27;;;;;;;187.33;86.97;;;;;7.60;95059.00;;;;5080945;28;20557;-73
2024/02/09 08:03:16;;;;;;;177.70;83.60;;;;;7.10;95053.00;;;;5077920;28;20204;-74
2024/02/09 08:06:05;;;;;;;182.97;81.00;;;;;8.00;95046.00;;;;5083818;28;20412;-72
2024/02/09 08:08:55;;;;;;;169.50;81.70;;;;;8.60;95063.00;;;;5090934;28;20236;-73
2024/02/09 08:11:47;;;;;;;196.93;87.03;;;;;8.70;95064.00;;;;5088572;28;20578;-72
2024/02/09 08:14:37;;;;;;;209.33;93.77;;;;;8.80;95057.00;;;;5088110;28;20203;-72
2024/02/09 08:17:26;;;;;;;234.97;95.30;;;;;9.00;95052.00;;;;5084337;28;20711;-72
2024/02/09 08:20:16;;;;;;;166.00;78.03;;;;;8.90;95055.00;;;;5083842;28;20288;-73
2024/02/09 08:23:06;;;;;;;242.27;89.77;;;;;8.70;95044.00;;;;5084749;28;20207;-73
2024/02/09 08:25:56;;;;;;;286.70;107.23;;;;;8.80;95043.00;;;;5095551;22;20234;-83
2024/02/09 08:28:47;;;;;;;191.80;88.87;;;;;9.50;95052.00;;;;5093181;28;20223;-86
2024/02/09 08:31:36;;;;;;;314.07;102.93;;;;;9.10;95037.00;;;;5117095;27;20197;-83
2024/02/09 08:34:26;;;;;;;326.23;94.93;;;;;9.50;95036.00;;;;5102241;28;20340;-85
2024/02/09 08:37:15;;;;;;;335.20;87.40;;;;;9.60;95038.00;;;;5095585;28;20210;-83
2024/02/09 08:40:05;;;;;;;59.27;53.40;;;;;9.80;95032.00;;;;5090425;28;20214;-87
2024/02/09 08:42:54;;;;;;;332.70;90.57;;;;;9.60;95024.00;;;;5082265;28;20235;-86
2024/02/09 08:45:45;;;;;;;253.57;95.73;;;;;10.00;95036.00;;;;5101062;28;20227;-84
2024/02/09 08:48:34;;;;;;;252.90;101.90;;;;;9.60;95037.00;;;;5104015;28;20230;-87
2024/02/09 08:51:24;;;;;;;244.37;98.97;;;;;9.80;95028.00;;;;5097725;28;20210;-87
2024/02/09 08:54:14;;;;;;;218.63;96.67;;;;;9.90;95026.00;;;;5093520;28;20258;-86
2024/02/09 08:57:03;;;;;;;228.47;96.07;;;;;9.70;95032.00;;;;5092185;28;20204;-85
2024/02/09 08:59:53;;;;;;;237.33;97.53;;;;;9.90;95023.00;;;;5099838;28;20579;-85
2024/02/09 09:02:43;;;;;;;246.63;103.90;;;;;10.30;95026.00;;;;5086640;28;20207;-85
2024/02/09 09:05:32;;;;;;;257.77;104.90;;;;;10.80;95020.00;;;;5095391;28;20684;-86
2024/02/09 09:08:22;;;;;;;271.80;100.17;;;;;11.00;95016.00;;;;5095686;28;20227;-85
2024/02/09 09:11:12;;;;;;;260.80;99.47;;;;;11.40;95019.00;;;;5090143;28;20203;-85
2024/02/09 09:14:03;;;;;;;270.13;98.30;;;;;11.50;95023.00;;;;5100739;28;20219;-86
2024/02/09 09:16:52;;;;;;;278.90;104.37;;;;;11.60;95015.00;;;;5093320;28;20208;-85
2024/02/09 09:19:44;;;;;;;285.63;114.30;;;;;11.60;95017.00;;;;5087131;28;22032;-84
2024/02/09 09:22:33;;;;;;;304.50;115.47;;;;;11.30;95002.00;;;;5091563;28;20701;-84
2024/02/09 09:25:23;;;;;;;278.73;107.77;;;;;11.30;95007.00;;;;5100418;28;20231;-84
2024/02/09 09:28:12;;;;;;;241.40;109.87;;;;;11.50;94999.00;;;;5101661;28;20230;-84
2024/02/09 09:31:01;;;;;;;267.20;108.73;;;;;11.80;95009.00;;;;5099084;28;20207;-85
2024/02/09 09:33:50;;;;;;;276.77;108.93;;;;;11.90;95008.00;;;;5101708;28;20223;-85
2024/02/09 09:36:41;;;;;;;276.40;118.10;;;;;12.00;95001.00;;;;5086132;28;20207;-86
2024/02/09 09:39:30;;;;;;;281.40;112.97;;;;;12.30;94998.00;;;;5092830;28;20199;-85
2024/02/09 09:42:20;;;;;;;252.57;110.40;;;;;12.40;95011.00;;;;5080840;28;20206;-84
2024/02/09 09:45:10;;;;;;;290.23;113.27;;;;;12.70;94997.00;;;;5086891;28;20231;-84
2024/02/09 09:48:00;;;;;;;290.97;114.53;;;;;13.00;95005.00;;;;5091966;28;20227;-86
2024/02/09 09:50:52;;;;;;;296.63;112.77;;;;;13.00;95002.00;;;;5090828;28;20282;-86
2024/02/09 09:53:44;;;;;;;318.43;119.53;;;;;12.70;94999.00;;;;5088641;28;20215;-85
2024/02/09 09:56:33;;;;;;;309.50;129.17;;;;;12.90;95005.00;;;;5082465;28;20215;-85
2024/02/09 09:59:22;;;;;;;320.73;130.37;;;;;12.90;95006.00;;;;5089116;28;20218;-86
2024/02/09 10:02:11;;;;;;;228.47;116.53;;;;;12.90;95010.00;;;;5089579;28;20208;-85
2024/02/09 10:05:01;;;;;;;290.00;121.47;;;;;12.80;95001.00;;;;5089235;28;20227;-86
2024/02/09 10:07:50;;;;;;;313.10;128.40;;;;;13.30;94991.00;;;;5091754;28;20234;-87
2024/02/09 10:10:42;;;;;;;216.87;122.20;;;;;12.50;94996.00;;;;5085188;28;20210;-85
2024/02/09 10:13:33;;;;;;;331.17;139.83;;;;;12.10;94994.00;;;;5088430;28;20207;-86
2024/02/09 10:16:23;;;;;;;264.97;120.10;;;;;12.00;94983.00;;;;5088120;28;20318;-85
2024/02/09 10:19:13;;;;;;;306.60;126.43;;;;;12.70;94996.00;;;;5086953;28;20585;-86
2024/02/09 10:22:03;;;;;;;290.60;120.37;;;;;13.10;94985.00;;;;5089620;28;20256;-85
2024/02/09 10:24:55;;;;;;;301.07;123.93;;;;;13.20;94981.00;;;;5084602;28;20851;-85
2024/02/09 10:27:46;;;;;;;258.07;123.13;;;;;13.10;94982.00;;;;5098669;28;20215;-86
2024/02/09 10:30:35;;;;;;;317.10;127.67;;;;;13.50;94982.00;;;;5096637;28;20210;-85
2024/02/09 10:33:25;;;;;;;315.67;125.40;;;;;13.20;94973.00;;;;5093304;28;20276;-85
2024/02/09 10:36:14;;;;;;;284.57;125.07;;;;;13.40;94967.00;;;;5093296;28;20203;-86
2024/02/09 10:39:03;;;;;;;308.80;123.80;;;;;13.60;94966.00;;;;5085919;28;20222;-86
2024/02/09 10:41:54;;;;;;;320.03;127.10;;;;;13.70;94966.00;;;;5092083;28;20657;-85
2024/02/09 10:44:46;;;;;;;321.77;131.93;;;;;13.90;94955.00;;;;5077288;28;20254;-86
2024/02/09 10:47:37;;;;;;;329.07;132.27;;;;;14.10;94961.00;;;;5084090;28;20210;-86
2024/02/09 10:50:30;;;;;;;279.03;125.60;;;;;14.30;94957.00;;;;5094956;28;20234;-85
2024/02/09 10:53:23;;;;;;;345.90;139.07;;;;;14.40;94956.00;;;;5089908;28;20207;-86
2024/02/09 10:56:14;;;;;;;338.53;132.80;;;;;14.50;94954.00;;;;5081897;28;20625;-86
2024/02/09 10:59:05;;;;;;;239.03;132.50;;;;;14.40;94949.00;;;;5085727;28;20500;-85
2024/02/09 11:01:56;;;;;;;317.97;133.80;;;;;14.80;94951.00;;;;5089069;28;20218;-85
2024/02/09 11:04:46;;;;;;;350.53;140.43;;;;;14.90;94945.00;;;;5186345;22;20971;-69
2024/02/09 11:07:35;;;;;;;370.43;145.43;;;;;15.00;94929.00;;;;5089638;28;20231;-69
2024/02/09 11:10:24;;;;;;;358.10;134.00;;;;;15.20;94912.00;;;;5093439;28;20303;-70
2024/02/09 11:13:24;;;;;;;356.23;134.87;;;;;15.70;94916.00;;;;5093621;28;20237;-69
2024/02/09 11:16:13;;;;;;;300.17;140.00;;;;;16.20;94919.00;;;;5094439;28;20620;-69
2024/02/09 11:19:12;;;;;;;371.13;144.07;;;;;16.40;94920.00;;;;5095723;28;20192;-69
2024/02/09 11:22:01;;;;;;;383.40;153.47;;;;;16.50;94906.00;;;;5093967;28;20261;-69
2024/02/09 11:24:51;;;;;;;375.57;156.37;;;;;15.70;94907.00;;;;5095817;28;20207;-69
2024/02/09 11:27:47;;;;;;;386.57;162.27;;;;;16.10;94910.00;;;;5093288;28;20583;-69
2024/02/09 11:30:38;;;;;;;379.77;162.90;;;;;16.60;94914.00;;;;5091912;28;20984;-69
2024/02/09 11:33:28;;;;;;;378.60;172.23;;;;;16.90;94908.00;;;;5096644;28;20335;-69
2024/02/09 11:36:22;;;;;;;367.60;165.17;;;;;16.70;94903.00;;;;5093125;28;20241;-69
2024/02/09 11:39:12;;;;;;;380.77;179.60;;;;;16.80;94902.00;;;;5095298;28;20209;-70
2024/02/09 11:42:02;;;;;;;379.80;174.93;;;;;16.20;94902.00;;;;5089756;28;20206;-70
2024/02/09 11:44:53;;;;;;;365.63;166.80;;;;;17.00;94886.00;;;;5090996;28;20202;-70
2024/02/09 11:47:43;;;;;;;367.97;171.77;;;;;17.00;94893.00;;;;5093003;28;20219;-69
2024/02/09 11:50:32;;;;;;;363.63;179.93;;;;;16.20;94889.00;;;;5098314;28;20223;-70
2024/02/09 11:53:22;;;;;;;333.47;179.20;;;;;16.80;94891.00;;;;5096310;28;20215;-69
2024/02/09 11:56:12;;;;;;;369.33;167.93;;;;;17.20;94892.00;;;;5096579;28;20215;-69
2024/02/09 11:59:03;;;;;;;324.03;170.40;;;;;17.70;94880.00;;;;5092241;28;20199;-70
2024/02/09 12:01:53;;;;;;;344.40;177.00;;;;;17.60;94877.00;;;;5105441;28;20209;-69
2024/02/09 12:04:42;;;;;;;350.20;181.60;;;;;17.10;94871.00;;;;5103893;28;20217;-68
2024/02/09 12:07:31;;;;;;;340.00;182.97;;;;;17.20;94878.00;;;;5102610;28;20238;-71
2024/02/09 12:10:23;;;;;;;333.57;181.47;;;;;17.60;94869.00;;;;5093309;28;20276;-70
2024/02/09 12:13:13;;;;;;;315.97;180.03;;;;;16.80;94864.00;;;;5092032;28;20207;-69
2024/02/09 12:16:03;;;;;;;330.70;185.80;;;;;17.00;94857.00;;;;5097315;28;20234;-70
2024/02/09 12:18:54;;;;;;;251.80;186.63;;;;;16.80;94852.00;;;;5090855;28;20195;-70
2024/02/09 12:21:46;;;;;;;263.77;188.60;;;;;17.10;94873.00;;;;5088884;28;20203;-70
2024/02/09 12:24:36;;;;;;;307.73;192.77;;;;;18.00;94854.00;;;;5096652;28;20218;-70
2024/02/09 12:27:27;;;;;;;290.83;180.27;;;;;17.40;94854.00;;;;5100585;28;20742;-69
2024/02/09 12:30:16;;;;;;;302.77;185.70;;;;;17.20;94851.00;;;;5088628;28;20631;-69
2024/02/09 12:33:06;;;;;;;302.53;184.53;;;;;18.10;94856.00;;;;5098134;28;20716;-70
2024/02/09 12:35:56;;;;;;;309.03;190.93;;;;;18.30;94857.00;;;;5107038;28;20843;-70
2024/02/09 12:38:45;;;;;;;334.03;209.63;;;;;17.70;94842.00;;;;5103883;28;20705;-70
2024/02/09 12:41:36;;;;;;;325.80;190.80;;;;;18.30;94849.00;;;;5104120;28;20218;-71
2024/02/09 12:44:29;;;;;;;323.47;189.93;;;;;17.00;94845.00;;;;5097671;28;20214;-71
2024/02/09 12:47:19;;;;;;;387.43;212.10;;;;;17.60;94846.00;;;;5095754;28;20219;-70
2024/02/09 12:50:11;;;;;;;353.97;197.33;;;;;17.90;94842.00;;;;5103514;28;20601;-71
2024/02/09 12:53:03;;;;;;;315.23;191.53;;;;;17.80;94845.00;;;;5096675;28;20233;-70
2024/02/09 12:55:54;;;;;;;373.67;203.67;;;;;17.90;94863.00;;;;5104590;28;20204;-71
2024/02/09 12:58:43;;;;;;;377.93;214.13;;;;;17.30;94860.00;;;;5093234;28;20666;-69
2024/02/09 13:01:34;;;;;;;365.93;203.67;;;;;17.60;94855.00;;;;5092390;28;20199;-69
2024/02/09 13:04:23;;;;;;;358.80;195.70;;;;;17.40;94873.00;;;;5089656;28;20464;-70
2024/02/09 13:07:14;;;;;;;365.30;192.33;;;;;18.00;94874.00;;;;5091333;28;20222;-70
2024/02/09 13:10:03;;;;;;;335.93;195.17;;;;;17.70;94864.00;;;;5087213;28;20695;-70
2024/02/09 13:12:53;;;;;;;380.77;201.20;;;;;17.30;94866.00;;;;5090248;28;20199;-70
2024/02/09 13:15:43;;;;;;;381.77;195.43;;;;;18.30;94854.00;;;;5097831;28;20205;-70
2024/02/09 13:18:33;;;;;;;391.30;202.53;;;;;17.90;94861.00;;;;5094359;28;20214;-69
2024/02/09 13:21:23;;;;;;;371.30;184.97;;;;;18.20;94862.00;;;;5098227;28;20585;-70
2024/02/09 13:24:12;;;;;;;378.33;188.33;;;;;18.40;94842.00;;;;5095204;28;20203;-70
2024/02/09 13:27:01;;;;;;;372.57;183.90;;;;;17.50;94847.00;;;;5095203;28;20226;-70
2024/02/09 13:29:50;;;;;;;381.60;190.80;;;;;18.00;94858.00;;;;5094264;28;20234;-70
2024/02/09 13:32:39;;;;;;;392.40;199.30;;;;;18.00;94855.00;;;;5095179;28;20199;-70
2024/02/09 13:35:32;;;;;;;378.03;192.20;;;;;17.50;94847.00;;;;5094310;28;20202;-69
2024/02/09 13:38:24;;;;;;;366.87;183.80;;;;;17.10;94859.00;;;;5099542;28;20205;-69
2024/02/09 13:41:13;;;;;;;368.57;181.27;;;;;17.70;94863.00;;;;5100636;28;20202;-69
2024/02/09 13:44:03;;;;;;;354.27;186.67;;;;;17.60;94855.00;;;;5096110;28;20573;-69
2024/02/09 13:46:52;;;;;;;371.97;178.33;;;;;16.70;94858.00;;;;5092156;28;20229;-69
2024/02/09 13:49:41;;;;;;;400.73;196.47;;;;;17.20;94856.00;;;;5098800;28;20222;-69
2024/02/09 13:52:32;;;;;;;377.83;186.23;;;;;16.90;94863.00;;;;5100029;28;20214;-69
2024/02/09 13:55:22;;;;;;;375.93;172.00;;;;;16.80;94870.00;;;;5097545;28;20213;-69
2024/02/09 13:58:12;;;;;;;382.33;183.23;;;;;17.10;94867.00;;;;5097176;28;20217;-69
2024/02/09 14:01:01;;;;;;;364.30;182.47;;;;;17.50;94879.00;;;;5099697;28;20229;-69
2024/02/09 14:03:50;;;;;;;380.33;181.53;;;;;17.60;94879.00;;;;5095098;28;20214;-69
2024/02/09 14:06:42;;;;;;;382.00;180.47;;;;;17.00;94867.00;;;;5090735;28;20235;-68
2024/02/09 14:09:35;;;;;;;377.40;192.70;;;;;17.70;94866.00;;;;5088648;28;20203;-68
2024/02/09 14:12:25;;;;;;;366.30;178.37;;;;;17.40;94873.00;;;;5096186;28;20711;-69
2024/02/09 14:15:14;;;;;;;374.10;178.23;;;;;17.10;94865.00;;;;5097634;28;20213;-68
2024/02/09 14:18:04;;;;;;;375.93;175.97;;;;;18.10;94868.00;;;;5098415;28;20221;-69
2024/02/09 14:20:53;;;;;;;379.10;175.40;;;;;17.80;94865.00;;;;5093419;28;20206;-68
2024/02/09 14:23:42;;;;;;;403.37;202.03;;;;;17.60;94868.00;;;;5095926;28;20203;-70
2024/02/09 14:26:33;;;;;;;382.90;180.17;;;;;16.80;94857.00;;;;5092354;28;20226;-68
2024/02/09 14:29:22;;;;;;;379.20;180.77;;;;;17.70;94858.00;;;;5095216;28;20203;-70
2024/02/09 14:32:11;;;;;;;379.23;181.93;;;;;17.40;94862.00;;;;5096885;28;20207;-69
2024/02/09 14:35:00;;;;;;;379.53;179.27;;;;;17.60;94849.00;;;;5093803;28;20203;-68
2024/02/09 14:37:50;;;;;;;383.53;180.80;;;;;18.00;94858.00;;;;5093390;28;20226;-69
2024/02/09 14:40:39;;;;;;;391.07;186.70;;;;;17.80;94859.00;;;;5095754;28;20227;-68
2024/02/09 14:43:30;;;;;;;393.43;190.67;;;;;16.90;94855.00;;;;5096610;28;20255;-68
2024/02/09 14:46:19;;;;;;;346.27;192.60;;;;;17.10;94845.00;;;;5094207;28;20219;-69
2024/02/09 14:49:09;;;;;;;386.50;185.83;;;;;17.20;94848.00;;;;5094276;28;20210;-67
2024/02/09 14:51:58;;;;;;;392.60;185.47;;;;;16.00;94833.00;;;;5092913;28;20226;-65
2024/02/09 14:54:49;;;;;;;385.43;182.23;;;;;16.20;94859.00;;;;5096589;28;20206;-69
2024/02/09 14:57:39;;;;;;;389.17;177.57;;;;;15.90;94861.00;;;;5093452;28;20647;-69
2024/02/09 15:00:32;;;;;;;375.80;163.40;;;;;16.20;94872.00;;;;5098686;28;20196;-67
2024/02/09 15:03:22;;;;;;;396.53;172.97;;;;;16.10;94868.00;;;;5095554;28;20637;-67
2024/02/09 15:06:12;;;;;;;378.57;162.27;;;;;16.10;94870.00;;;;5096364;28;20287;-68
2024/02/09 15:09:02;;;;;;;375.77;152.83;;;;;16.20;94867.00;;;;5095826;28;20214;-67
2024/02/09 15:11:51;;;;;;;378.90;153.27;;;;;16.00;94867.00;;;;5097429;28;20231;-69
2024/02/09 15:14:41;;;;;;;387.83;160.87;;;;;15.90;94863.00;;;;5091534;28;20203;-70
2024/02/09 15:17:31;;;;;;;374.23;156.67;;;;;16.60;94876.00;;;;5096490;28;20232;-70
2024/02/09 15:20:21;;;;;;;372.27;153.80;;;;;16.00;94876.00;;;;5094225;28;20199;-69
2024/02/09 15:23:12;;;;;;;382.30;159.13;;;;;16.10;94877.00;;;;5090707;28;20211;-68
2024/02/09 15:26:02;;;;;;;373.00;151.80;;;;;15.60;94872.00;;;;5097308;28;20247;-71
2024/02/09 15:28:54;;;;;;;386.90;158.33;;;;;16.20;94879.00;;;;5093476;28;20222;-70